Time;durP1;ratioP1;P1;durP2;ratioP2;P2;SDS_P1;SDS_P2;PMS_P1;PMS_P2;Temp;Humidity;BMP_temperature;BMP_pressure;BME280_temperature;BME280_humidity;BME280_pressure;Samples;Min_cycle;Max_cycle;Signal;HPM_P1;HPM_P2
2022/04/15 00:00:39;;;;;;;23.15;10.88;;;;;;;10.84;81.73;102162.25;5063363;28;20094;-76
2022/04/15 00:03:07;;;;;;;19.52;10.45;;;;;;;10.79;82.09;102163.56;5042596;28;20171;-76
2022/04/15 00:05:36;;;;;;;17.90;10.07;;;;;;;10.74;81.97;102157.91;5029407;28;20035;-76
2022/04/15 00:08:04;;;;;;;16.42;9.95;;;;;;;10.67;82.44;102162.78;5059608;28;20048;-76
2022/04/15 00:10:30;;;;;;;20.40;10.02;;;;;;;10.62;82.58;102164.94;5063980;28;20025;-76
2022/04/15 00:12:56;;;;;;;20.63;10.25;;;;;;;10.60;82.40;102161.63;5069015;28;20428;-76
2022/04/15 00:15:21;;;;;;;24.02;11.15;;;;;;;10.57;82.82;102167.06;5048570;28;20097;-76
2022/04/15 00:17:47;;;;;;;17.20;10.50;;;;;;;10.55;82.53;102158.56;5031403;28;20489;-76
2022/04/15 00:20:14;;;;;;;19.25;11.38;;;;;;;10.50;82.37;102154.59;5046053;28;20261;-76
2022/04/15 00:22:40;;;;;;;19.95;10.10;;;;;;;10.47;82.22;102160.03;5062943;28;20036;-76
2022/04/15 00:25:07;;;;;;;21.00;10.23;;;;;;;10.45;82.74;102158.50;5047038;28;20043;-76
2022/04/15 00:27:34;;;;;;;19.25;10.40;;;;;;;10.40;82.79;102152.88;5044899;28;20424;-76
2022/04/15 00:29:59;;;;;;;21.13;10.23;;;;;;;10.36;82.92;102159.22;5064192;28;20680;-76
2022/04/15 00:32:26;;;;;;;23.55;11.70;;;;;;;10.31;82.68;102157.00;5045536;28;20059;-76
2022/04/15 00:34:52;;;;;;;19.35;10.15;;;;;;;10.30;82.85;102168.28;5048119;28;20029;-76
2022/04/15 00:37:18;;;;;;;18.20;10.82;;;;;;;10.26;82.98;102159.91;5062245;28;20028;-76
2022/04/15 00:39:45;;;;;;;17.90;10.20;;;;;;;10.19;83.12;102169.13;5057429;28;20032;-76
2022/04/15 00:42:12;;;;;;;18.50;10.60;;;;;;;10.13;83.92;102169.59;5048822;28;20677;-76
2022/04/15 00:44:38;;;;;;;21.95;11.00;;;;;;;10.11;84.00;102161.13;5048332;28;20097;-76
2022/04/15 00:47:17;;;;;;;22.00;11.10;;;;;;;10.10;83.80;102172.44;5048184;28;20040;-76
2022/04/15 00:49:43;;;;;;;18.17;10.93;;;;;;;10.06;84.32;102171.03;5056345;28;20485;-76
2022/04/15 00:52:12;;;;;;;23.92;11.35;;;;;;;10.03;84.01;102172.06;5042130;28;20044;-76
2022/04/15 00:54:39;;;;;;;24.27;10.80;;;;;;;10.00;84.41;102172.34;5043899;28;20028;-76
2022/04/15 00:57:09;;;;;;;22.20;10.65;;;;;;;9.99;84.25;102185.41;5061543;28;20067;-76
2022/04/15 00:59:38;;;;;;;19.95;10.63;;;;;;;9.92;84.36;102172.91;5062648;28;20152;-76
2022/04/15 01:02:04;;;;;;;19.65;10.93;;;;;;;9.89;84.54;102177.53;5048550;28;20044;-76
2022/04/15 01:04:31;;;;;;;25.02;11.43;;;;;;;9.87;84.82;102185.41;5044018;28;20036;-76
2022/04/15 01:07:02;;;;;;;23.10;11.48;;;;;;;9.85;84.71;102181.25;5066516;28;20063;-76
2022/04/15 01:09:32;;;;;;;20.65;11.32;;;;;;;9.80;84.90;102188.59;5056451;28;20082;-76
2022/04/15 01:11:59;;;;;;;25.88;11.32;;;;;;;9.70;85.18;102181.50;5046394;28;20681;-76
2022/04/15 01:14:27;;;;;;;22.67;11.48;;;;;;;9.64;85.28;102186.31;5064085;28;20138;-76
2022/04/15 01:16:52;;;;;;;23.23;12.43;;;;;;;9.58;85.62;102189.38;5047883;28;20029;-76
2022/04/15 01:19:18;;;;;;;23.85;11.93;;;;;;;9.57;85.56;102188.56;5043197;28;20378;-76
2022/04/15 01:21:44;;;;;;;25.75;11.43;;;;;;;9.58;85.75;102199.75;5060168;28;20059;-76
2022/04/15 01:24:09;;;;;;;24.95;11.35;;;;;;;9.51;85.54;102189.84;5026492;28;20117;-76
2022/04/15 01:26:38;;;;;;;17.23;10.70;;;;;;;9.41;85.55;102193.22;5042422;28;20477;-76
2022/04/15 01:29:04;;;;;;;20.10;10.93;;;;;;;9.32;86.05;102195.56;5044978;28;20067;-76
2022/04/15 01:31:31;;;;;;;20.67;11.13;;;;;;;9.27;86.21;102191.69;5028579;28;20021;-76
2022/04/15 01:33:59;;;;;;;21.30;11.15;;;;;;;9.24;86.25;102197.88;5059727;28;20040;-76
2022/04/15 01:36:24;;;;;;;16.08;10.23;;;;;;;9.16;86.19;102197.63;5045397;28;20028;-76
2022/04/15 01:38:50;;;;;;;21.13;11.25;;;;;;;9.14;86.16;102204.69;5044630;28;20057;-76
2022/04/15 01:41:15;;;;;;;21.95;11.82;;;;;;;9.07;86.12;102208.66;5042317;28;20508;-76
2022/04/15 01:43:40;;;;;;;27.65;11.85;;;;;;;9.05;86.39;102197.59;5040737;28;20080;-76
2022/04/15 01:46:06;;;;;;;24.20;11.63;;;;;;;9.00;86.23;102200.50;5057174;28;20094;-76
2022/04/15 01:48:31;;;;;;;20.65;11.52;;;;;;;8.98;86.72;102209.31;5044299;28;20036;-76
2022/04/15 01:50:57;;;;;;;26.40;12.60;;;;;;;8.96;86.76;102209.44;5045787;28;20040;-76
2022/04/15 01:53:22;;;;;;;24.63;11.48;;;;;;;8.94;86.86;102209.53;5041627;28;20033;-76
2022/04/15 01:55:48;;;;;;;23.48;11.60;;;;;;;8.92;86.83;102216.56;5029044;28;20044;-76
2022/04/15 01:58:13;;;;;;;22.75;11.73;;;;;;;8.88;87.04;102212.56;5044400;28;20107;-76
2022/04/15 02:00:39;;;;;;;27.05;12.25;;;;;;;8.84;86.95;102213.72;5028295;28;20025;-76
2022/04/15 02:03:04;;;;;;;25.30;12.15;;;;;;;8.81;87.39;102216.53;5024226;28;20039;-76
2022/04/15 02:05:30;;;;;;;27.35;13.27;;;;;;;8.79;87.46;102217.56;5041058;28;20025;-75
2022/04/15 02:07:55;;;;;;;23.20;12.88;;;;;;;8.74;87.55;102215.34;5039802;28;20501;-76
2022/04/15 02:10:21;;;;;;;25.10;12.52;;;;;;;8.71;87.79;102216.34;5028709;28;20028;-76
2022/04/15 02:12:46;;;;;;;22.88;13.32;;;;;;;8.67;87.99;102214.94;5043560;28;20032;-76
2022/04/15 02:15:12;;;;;;;24.20;13.60;;;;;;;8.67;88.39;102216.69;5043835;28;20071;-76
2022/04/15 02:17:37;;;;;;;23.92;13.10;;;;;;;8.67;88.49;102227.84;5042463;28;20405;-76
2022/04/15 02:20:04;;;;;;;21.73;12.65;;;;;;;8.66;88.52;102223.59;5041256;28;20033;-76
2022/04/15 02:22:29;;;;;;;22.92;13.10;;;;;;;8.66;88.41;102217.63;5028519;28;20035;-76
2022/04/15 02:24:55;;;;;;;20.20;11.95;;;;;;;8.64;88.27;102225.47;5059919;28;20081;-76
2022/04/15 02:27:21;;;;;;;25.50;12.90;;;;;;;8.63;88.33;102233.38;5047533;28;20032;-76
2022/04/15 02:29:46;;;;;;;21.63;12.52;;;;;;;8.62;88.10;102219.59;5042350;28;20504;-76
2022/04/15 02:32:12;;;;;;;21.48;11.50;;;;;;;8.61;88.17;102224.88;5042746;28;20039;-75
2022/04/15 02:34:37;;;;;;;23.48;12.30;;;;;;;8.59;88.08;102222.41;5040090;28;20033;-76
2022/04/15 02:37:03;;;;;;;20.80;11.98;;;;;;;8.54;88.05;102224.50;5059890;28;20047;-75
2022/04/15 02:39:28;;;;;;;26.58;13.43;;;;;;;8.50;88.36;102225.66;5061839;28;20020;-76
2022/04/15 02:41:56;;;;;;;26.25;12.55;;;;;;;8.45;88.62;102225.13;5040529;28;20083;-76
2022/04/15 02:44:22;;;;;;;20.00;11.93;;;;;;;8.38;88.96;102225.53;5043231;28;20122;-76
2022/04/15 02:46:47;;;;;;;25.35;12.20;;;;;;;8.34;89.37;102237.03;5063433;28;20037;-76
2022/04/15 02:49:13;;;;;;;24.50;12.65;;;;;;;8.33;89.28;102234.53;5041939;28;20290;-76
2022/04/15 02:51:38;;;;;;;23.15;13.63;;;;;;;8.30;89.67;102234.75;5059784;28;20113;-75
2022/04/15 02:54:04;;;;;;;26.08;13.18;;;;;;;8.24;89.43;102233.41;5041850;28;20041;-76
2022/04/15 02:56:29;;;;;;;23.15;12.75;;;;;;;8.19;89.73;102235.47;5058009;28;20551;-76
2022/04/15 02:58:55;;;;;;;25.63;13.20;;;;;;;8.15;89.90;102228.88;5047696;28;20039;-76
2022/04/15 03:01:20;;;;;;;22.92;13.20;;;;;;;8.12;90.13;102237.66;5041766;28;20046;-76
2022/04/15 03:03:46;;;;;;;22.60;13.07;;;;;;;8.11;90.00;102236.00;5028657;28;20025;-76
2022/04/15 03:06:11;;;;;;;23.30;12.77;;;;;;;8.11;90.17;102236.00;5059879;28;20025;-76
2022/04/15 03:08:36;;;;;;;24.38;12.70;;;;;;;8.08;89.98;102241.41;5038255;28;20198;-76
2022/04/15 03:11:02;;;;;;;23.13;12.93;;;;;;;8.07;89.73;102233.75;5057259;28;20037;-76
2022/04/15 03:13:27;;;;;;;26.58;12.70;;;;;;;8.05;89.74;102239.00;5041709;28;20043;-76
2022/04/15 03:15:53;;;;;;;21.50;12.13;;;;;;;8.01;89.81;102244.50;5044248;28;20028;-76
2022/04/15 03:18:18;;;;;;;25.08;12.98;;;;;;;7.96;89.95;102237.03;5041005;28;20032;-76
2022/04/15 03:20:44;;;;;;;24.45;12.65;;;;;;;7.92;90.21;102233.84;5042928;28;20024;-76
2022/04/15 03:23:09;;;;;;;23.25;12.55;;;;;;;7.87;90.21;102240.25;5044810;28;20317;-77
2022/04/15 03:25:35;;;;;;;23.60;13.15;;;;;;;7.83;90.54;102243.97;5060486;28;20085;-76
2022/04/15 03:28:00;;;;;;;26.70;13.60;;;;;;;7.81;90.87;102238.91;5044357;28;20037;-76
2022/04/15 03:30:27;;;;;;;29.05;13.75;;;;;;;7.80;90.73;102237.28;5056894;28;20552;-76
2022/04/15 03:32:52;;;;;;;23.42;13.35;;;;;;;7.77;90.80;102238.28;5040089;28;20040;-76
2022/04/15 03:35:20;;;;;;;23.40;13.20;;;;;;;7.74;90.73;102238.50;5042746;28;20121;-76
2022/04/15 03:37:47;;;;;;;28.52;14.32;;;;;;;7.70;91.13;102249.94;5056010;28;20110;-76
2022/04/15 03:40:13;;;;;;;27.13;14.27;;;;;;;7.66;91.33;102245.09;5044415;28;20036;-76
2022/04/15 03:42:49;;;;;;;25.17;14.13;;;;;;;7.64;91.58;102244.38;5044433;28;20066;-76
2022/04/15 03:45:18;;;;;;;25.45;13.60;;;;;;;7.62;91.97;102252.22;5026654;28;20055;-76
2022/04/15 03:47:51;;;;;;;26.13;14.13;;;;;;;7.63;91.86;102246.13;5043183;28;20094;-76
2022/04/15 03:50:16;;;;;;;23.55;13.70;;;;;;;7.62;91.53;102247.06;5042455;28;20093;-76
2022/04/15 03:52:45;;;;;;;24.35;14.27;;;;;;;7.61;91.55;102242.81;5061567;28;20033;-75
2022/04/15 03:55:15;;;;;;;24.35;12.65;;;;;;;7.60;91.18;102241.16;5043442;28;20043;-76
2022/04/15 03:57:41;;;;;;;25.85;12.93;;;;;;;7.60;91.14;102238.59;5027503;28;20107;-76
2022/04/15 04:00:12;;;;;;;23.05;12.70;;;;;;;7.56;90.87;102248.28;5059360;28;20072;-76
2022/04/15 04:02:38;;;;;;;27.67;13.68;;;;;;;7.52;90.79;102244.25;5056689;28;20093;-76
2022/04/15 04:05:04;;;;;;;26.25;13.73;;;;;;;7.51;91.00;102240.00;5042044;28;20056;-76
2022/04/15 04:07:31;;;;;;;24.58;13.30;;;;;;;7.51;90.83;102237.41;5058448;28;20032;-76
2022/04/15 04:09:56;;;;;;;28.92;15.10;;;;;;;7.51;90.88;102246.94;5022895;28;20056;-76
2022/04/15 04:12:22;;;;;;;22.90;13.80;;;;;;;7.49;90.88;102241.88;5041955;28;20461;-76
2022/04/15 04:14:47;;;;;;;26.58;13.20;;;;;;;7.46;90.72;102238.66;5027270;28;20025;-76
2022/04/15 04:17:13;;;;;;;30.13;13.65;;;;;;;7.43;90.99;102252.59;5061420;28;20440;-76
2022/04/15 04:19:38;;;;;;;30.38;13.85;;;;;;;7.40;90.97;102245.88;5039874;28;20020;-76
2022/04/15 04:22:04;;;;;;;26.55;14.07;;;;;;;7.39;91.27;102253.72;5044533;28;20063;-76
2022/04/15 04:24:30;;;;;;;26.25;14.07;;;;;;;7.38;91.52;102252.06;5025979;28;20638;-75
2022/04/15 04:26:55;;;;;;;29.83;16.02;;;;;;;7.36;91.42;102253.91;5059652;28;20089;-76
2022/04/15 04:29:21;;;;;;;26.73;14.35;;;;;;;7.33;91.13;102254.94;5037386;28;20021;-75
2022/04/15 04:31:46;;;;;;;29.65;14.68;;;;;;;7.33;91.07;102252.38;5040126;28;20035;-76
2022/04/15 04:34:11;;;;;;;29.30;14.27;;;;;;;7.32;90.94;102260.19;5056889;28;20079;-76
2022/04/15 04:36:37;;;;;;;25.52;14.23;;;;;;;7.32;90.94;102255.88;5061528;28;20098;-76
2022/04/15 04:39:06;;;;;;;30.95;14.88;;;;;;;7.31;90.83;102266.28;5044937;28;20118;-76
2022/04/15 04:41:32;;;;;;;24.58;13.93;;;;;;;7.30;90.83;102264.63;5023465;28;20032;-75
2022/04/15 04:43:57;;;;;;;30.70;16.77;;;;;;;7.28;90.88;102276.81;5041614;28;20028;-75
2022/04/15 04:46:23;;;;;;;29.83;15.27;;;;;;;7.24;91.29;102278.75;5042384;28;20032;-75
2022/04/15 04:48:48;;;;;;;26.35;14.48;;;;;;;7.22;91.70;102289.19;5058668;28;20032;-76
2022/04/15 04:51:14;;;;;;;26.92;15.30;;;;;;;7.22;91.98;102293.50;5042029;28;20455;-76
2022/04/15 04:53:39;;;;;;;35.58;16.45;;;;;;;7.27;92.36;102294.06;5040690;28;20028;-76
2022/04/15 04:56:05;;;;;;;39.30;17.85;;;;;;;7.24;93.54;102286.50;5043211;28;20040;-76
2022/04/15 04:58:30;;;;;;;34.13;18.42;;;;;;;7.27;94.41;102293.22;5028236;28;20599;-76
2022/04/15 05:00:56;;;;;;;33.58;18.20;;;;;;;7.27;95.20;102301.78;5059331;28;20024;-76
2022/04/15 05:03:21;;;;;;;36.88;18.95;;;;;;;7.28;95.61;102303.44;5041793;28;20047;-76
2022/04/15 05:05:46;;;;;;;33.45;18.30;;;;;;;7.34;96.22;102310.78;5062768;28;20036;-76
2022/04/15 05:08:12;;;;;;;32.45;18.17;;;;;;;7.35;96.37;102314.22;5050147;28;20047;-75
2022/04/15 05:10:37;;;;;;;33.35;18.08;;;;;;;7.40;96.90;102314.72;5059991;28;20040;-75
2022/04/15 05:13:03;;;;;;;30.52;17.20;;;;;;;7.45;97.34;102317.84;5061835;28;20048;-76
2022/04/15 05:15:28;;;;;;;33.72;17.13;;;;;;;7.49;97.36;102329.63;5061374;28;20036;-76
2022/04/15 05:17:54;;;;;;;34.47;18.80;;;;;;;7.52;97.49;102333.78;5044655;28;20073;-76
2022/04/15 05:20:19;;;;;;;34.40;16.17;;;;;;;7.48;97.97;102332.28;5045849;28;20028;-76
2022/04/15 05:22:45;;;;;;;34.47;18.42;;;;;;;7.49;98.16;102336.53;5049216;28;20669;-76
2022/04/15 05:25:10;;;;;;;34.35;18.65;;;;;;;7.51;98.76;102342.44;5046018;28;20508;-76
2022/04/15 05:27:36;;;;;;;32.38;17.92;;;;;;;7.51;98.56;102345.84;5045118;28;20033;-78
2022/04/15 05:30:02;;;;;;;36.88;19.23;;;;;;;7.49;99.07;102344.28;5046380;28;20035;-78
2022/04/15 05:32:28;;;;;;;36.30;20.50;;;;;;;7.52;99.46;102354.44;5044602;28;20097;-78
2022/04/15 05:34:53;;;;;;;38.92;21.02;;;;;;;7.58;99.74;102357.44;5044605;28;20543;-78
2022/04/15 05:37:19;;;;;;;36.53;19.88;;;;;;;7.67;99.58;102362.94;5041192;28;20130;-78
2022/04/15 05:39:44;;;;;;;45.75;23.55;;;;;;;7.67;99.65;102366.34;5026479;28;20036;-76
2022/04/15 05:42:09;;;;;;;45.40;22.83;;;;;;;7.66;100.00;102369.03;5029923;28;20107;-76
2022/04/15 05:44:35;;;;;;;50.22;24.98;;;;;;;7.65;100.00;102365.63;5061892;28;20098;-75
2022/04/15 05:47:00;;;;;;;47.80;25.08;;;;;;;7.69;100.00;102380.00;5044470;28;20028;-78
2022/04/15 05:49:26;;;;;;;55.35;23.33;;;;;;;7.63;100.00;102382.13;5044283;28;20033;-78
2022/04/15 05:51:51;;;;;;;53.65;23.05;;;;;;;7.60;100.00;102385.75;5043055;28;20516;-76
2022/04/15 05:54:17;;;;;;;53.55;24.70;;;;;;;7.51;100.00;102388.91;5058276;28;20653;-76
2022/04/15 05:56:42;;;;;;;50.15;24.45;;;;;;;7.49;100.00;102398.50;5024371;28;20125;-76
2022/04/15 05:59:08;;;;;;;52.67;24.75;;;;;;;7.47;100.00;102403.75;5038344;28;20317;-76
2022/04/15 06:01:34;;;;;;;53.45;25.67;;;;;;;7.40;100.00;102400.75;5042857;28;20032;-76
2022/04/15 06:03:59;;;;;;;54.38;25.30;;;;;;;7.40;100.00;102410.22;5040421;28;20032;-76
2022/04/15 06:06:25;;;;;;;61.22;28.80;;;;;;;7.39;100.00;102424.06;5059636;28;20032;-76
2022/04/15 06:08:50;;;;;;;55.10;27.42;;;;;;;7.35;100.00;102422.59;5060812;28;20036;-76
2022/04/15 06:11:16;;;;;;;58.78;28.55;;;;;;;7.39;100.00;102424.88;5041574;28;20036;-76
2022/04/15 06:13:46;;;;;;;59.60;28.45;;;;;;;7.41;100.00;102428.19;5060970;28;20478;-76
2022/04/15 06:16:20;;;;;;;63.03;30.00;;;;;;;7.34;100.00;102431.25;5048280;28;20047;-77
2022/04/15 06:18:46;;;;;;;70.22;31.45;;;;;;;7.40;100.00;102430.88;5041765;28;20119;-76
2022/04/15 06:21:12;;;;;;;50.85;26.83;;;;;;;7.50;100.00;102444.03;5044372;28;20028;-76
2022/04/15 06:23:38;;;;;;;44.60;23.73;;;;;;;7.44;100.00;102449.56;5045454;28;20066;-76
2022/04/15 06:26:07;;;;;;;39.42;21.50;;;;;;;7.42;100.00;102459.97;5059647;28;20085;-76
2022/04/15 06:28:33;;;;;;;41.85;21.40;;;;;;;7.29;100.00;102456.50;5061303;28;20085;-76
2022/04/15 06:30:59;;;;;;;42.88;20.70;;;;;;;7.27;100.00;102459.19;5043080;28;20032;-76
2022/04/15 06:33:25;;;;;;;46.97;22.58;;;;;;;7.14;100.00;102461.69;5061255;28;20028;-74
2022/04/15 06:35:53;;;;;;;41.28;22.80;;;;;;;7.12;100.00;102466.13;5046538;28;20478;-76
2022/04/15 06:38:19;;;;;;;42.47;22.20;;;;;;;7.16;100.00;102472.75;5045477;28;20032;-76
2022/04/15 06:40:44;;;;;;;45.65;21.73;;;;;;;7.24;100.00;102476.63;5049198;28;20086;-76
2022/04/15 06:43:10;;;;;;;34.78;20.00;;;;;;;7.22;100.00;102482.69;5045231;28;20029;-76
2022/04/15 06:45:36;;;;;;;41.55;19.75;;;;;;;7.14;100.00;102486.63;5062088;28;20639;-76
2022/04/15 06:48:01;;;;;;;31.73;18.20;;;;;;;6.99;100.00;102488.41;5043040;28;20672;-76
2022/04/15 06:50:28;;;;;;;57.22;27.55;;;;;;;7.14;100.00;102486.63;5060694;28;20439;-76
2022/04/15 06:52:53;;;;;;;34.28;19.05;;;;;;;7.00;100.00;102495.22;5062629;28;20454;-76
2022/04/15 06:55:18;;;;;;;33.05;18.42;;;;;;;7.02;100.00;102494.19;5042739;28;20097;-76
2022/04/15 06:57:44;;;;;;;30.77;16.65;;;;;;;7.04;100.00;102482.97;5043897;28;20103;-76
2022/04/15 07:00:14;;;;;;;38.70;19.35;;;;;;;7.09;100.00;102486.09;5026276;28;20036;-76
2022/04/15 07:02:41;;;;;;;42.22;20.35;;;;;;;7.09;100.00;102480.94;5025462;28;20756;-76
2022/04/15 07:05:09;;;;;;;35.03;18.55;;;;;;;7.13;100.00;102490.97;5060088;28;20052;-76
2022/04/15 07:07:38;;;;;;;37.45;18.10;;;;;;;7.11;100.00;102492.00;5043344;28;20064;-76
2022/04/15 07:10:05;;;;;;;40.20;17.98;;;;;;;7.03;100.00;102497.63;5040419;28;20093;-76
2022/04/15 07:12:31;;;;;;;38.50;20.42;;;;;;;7.06;100.00;102500.00;5046107;28;20706;-78
2022/04/15 07:14:57;;;;;;;31.25;18.88;;;;;;;7.14;100.00;102499.53;5065343;28;20029;-76
2022/04/15 07:17:24;;;;;;;26.30;16.50;;;;;;;7.20;100.00;102505.19;5049731;28;20079;-76
2022/04/15 07:19:50;;;;;;;34.30;17.95;;;;;;;7.24;100.00;102502.41;5044509;28;20284;-76
2022/04/15 07:22:19;;;;;;;34.45;18.05;;;;;;;7.29;100.00;102497.78;5046482;28;20036;-76
2022/04/15 07:24:46;;;;;;;40.90;18.25;;;;;;;7.50;100.00;102500.84;5039148;28;20060;-76
2022/04/15 07:27:12;;;;;;;36.97;17.15;;;;;;;7.58;99.73;102501.19;5061328;28;20032;-76
2022/04/15 07:29:37;;;;;;;34.35;16.88;;;;;;;7.73;99.08;102504.56;5060408;28;20436;-76
2022/04/15 07:32:04;;;;;;;29.05;16.33;;;;;;;7.85;97.40;102496.03;5026443;28;20040;-76
2022/04/15 07:34:29;;;;;;;34.47;17.05;;;;;;;8.25;97.03;102493.50;5060806;28;20028;-77
2022/04/15 07:36:55;;;;;;;27.08;15.95;;;;;;;8.51;95.34;102496.16;5062154;28;20415;-76
2022/04/15 07:39:22;;;;;;;26.08;15.32;;;;;;;9.64;91.10;102491.94;5040075;28;20082;-76
2022/04/15 07:41:48;;;;;;;26.42;15.15;;;;;;;10.84;83.21;102488.38;5045233;28;20127;-77
2022/04/15 07:44:14;;;;;;;25.80;13.35;;;;;;;11.92;76.10;102495.59;5028459;28;20063;-76
2022/04/15 07:46:42;;;;;;;33.28;19.85;;;;;;;12.77;72.59;102487.72;5043592;28;20127;-76
2022/04/15 07:49:08;;;;;;;34.13;20.20;;;;;;;12.49;70.86;102486.59;5057380;28;20043;-77
2022/04/15 07:51:35;;;;;;;36.92;21.35;;;;;;;12.64;68.12;102487.09;5042369;28;20029;-77
2022/04/15 07:54:01;;;;;;;37.95;21.45;;;;;;;12.05;70.28;102491.91;5027427;28;20429;-75
2022/04/15 07:56:27;;;;;;;31.73;19.52;;;;;;;11.60;70.62;102485.97;5059221;28;20467;-76
2022/04/15 07:58:52;;;;;;;31.50;19.40;;;;;;;11.02;73.55;102494.78;5042821;28;20082;-76
2022/04/15 08:01:19;;;;;;;38.70;21.95;;;;;;;10.52;75.90;102502.00;5044633;28;20020;-77
2022/04/15 08:03:44;;;;;;;42.65;25.77;;;;;;;10.31;76.23;102494.88;5039523;28;20040;-76
2022/04/15 08:06:10;;;;;;;45.28;26.45;;;;;;;10.35;76.49;102499.84;5059079;28;20059;-76
2022/04/15 08:08:36;;;;;;;49.33;25.73;;;;;;;10.56;75.80;102494.84;5055173;28;20040;-77
2022/04/15 08:11:01;;;;;;;55.28;29.88;;;;;;;10.43;76.58;102503.50;5057780;28;20043;-76
2022/04/15 08:13:27;;;;;;;47.67;25.15;;;;;;;10.28;76.79;102499.44;5046366;28;20036;-77
2022/04/15 08:15:53;;;;;;;40.22;22.25;;;;;;;10.35;76.65;102498.06;5057994;28;20028;-76
2022/04/15 08:18:23;;;;;;;30.60;17.23;;;;;;;10.38;75.87;102503.03;5059401;28;20122;-76
2022/04/15 08:20:50;;;;;;;20.38;12.55;;;;;;;10.28;74.04;102508.06;5024258;28;20024;-76
2022/04/15 08:23:17;;;;;;;14.70;9.82;;;;;;;10.47;73.89;102502.38;5043045;28;20028;-76
2022/04/15 08:25:44;;;;;;;14.25;8.63;;;;;;;10.73;72.35;102509.94;5040198;28;20043;-76
2022/04/15 08:28:10;;;;;;;13.80;8.98;;;;;;;10.72;71.68;102505.72;5040511;28;20615;-76
2022/04/15 08:30:37;;;;;;;11.07;8.25;;;;;;;11.01;72.01;102510.47;5026430;28;20047;-77
2022/04/15 08:33:05;;;;;;;15.50;7.93;;;;;;;10.81;70.83;102520.59;5027400;28;20028;-77
2022/04/15 08:35:31;;;;;;;12.95;7.63;;;;;;;11.41;70.37;102513.41;5063336;28;20504;-76
2022/04/15 08:37:57;;;;;;;12.10;7.28;;;;;;;11.36;70.63;102519.88;5047486;28;21089;-75
2022/04/15 08:40:22;;;;;;;14.68;8.13;;;;;;;11.03;70.14;102519.78;5048195;28;20405;-76
2022/04/15 08:42:48;;;;;;;12.27;7.30;;;;;;;11.01;71.14;102511.28;5029032;28;20032;-77
2022/04/15 08:45:14;;;;;;;11.90;6.68;;;;;;;10.79;69.25;102525.06;5046763;28;20024;-76
2022/04/15 08:47:40;;;;;;;13.23;7.30;;;;;;;11.09;67.62;102514.13;5063132;28;20032;-76
2022/04/15 08:50:08;;;;;;;7.60;5.78;;;;;;;10.99;68.66;102514.94;5061295;28;20041;-77
2022/04/15 08:52:33;;;;;;;7.95;5.43;;;;;;;10.82;67.83;102524.00;5061160;28;20093;-77
2022/04/15 08:54:59;;;;;;;8.30;5.20;;;;;;;11.86;65.31;102517.69;5059650;28;20517;-76
2022/04/15 08:57:24;;;;;;;8.38;4.38;;;;;;;12.70;62.64;102517.00;5044671;28;20418;-76
2022/04/15 08:59:50;;;;;;;7.80;4.97;;;;;;;12.99;60.67;102523.16;5059573;28;20190;-76
2022/04/15 09:02:31;;;;;;;6.97;3.83;;;;;;;13.60;59.91;102516.28;5029780;28;20056;-76
2022/04/15 09:04:57;;;;;;;5.93;3.95;;;;;;;13.58;58.02;102526.84;5044313;28;20064;-76
2022/04/15 09:07:26;;;;;;;6.03;3.85;;;;;;;13.94;57.40;102521.13;5058573;28;20066;-76
2022/04/15 09:10:00;;;;;;;8.40;3.95;;;;;;;14.14;57.12;102525.38;5026110;28;20056;-77
2022/04/15 09:12:30;;;;;;;6.68;3.97;;;;;;;14.62;56.09;102517.66;5063030;28;20097;-77
2022/04/15 09:14:59;;;;;;;10.90;4.47;;;;;;;14.50;54.69;102523.00;5023139;28;20136;-76
2022/04/15 09:17:27;;;;;;;8.25;4.32;;;;;;;14.63;54.42;102516.72;5039896;28;20093;-77
2022/04/15 09:19:53;;;;;;;6.35;3.30;;;;;;;14.68;56.66;102523.16;5044781;28;20747;-76
2022/04/15 09:22:19;;;;;;;7.25;4.03;;;;;;;14.32;56.98;102537.75;5061138;28;20036;-77
2022/04/15 09:24:46;;;;;;;6.70;3.70;;;;;;;14.19;58.32;102531.00;5025320;28;20085;-77
2022/04/15 09:27:11;;;;;;;6.47;3.70;;;;;;;14.04;57.25;102529.78;5044013;28;20063;-77
2022/04/15 09:29:39;;;;;;;6.78;4.13;;;;;;;14.06;58.39;102532.25;5043962;28;20605;-76
2022/04/15 09:32:15;;;;;;;8.27;4.43;;;;;;;13.54;58.17;102532.44;5057700;28;20556;-77
2022/04/15 09:35:04;;;;;;;4.97;3.65;;;;;;;13.60;58.30;102537.97;5046653;28;20036;-77
2022/04/15 09:37:44;;;;;;;7.22;4.45;;;;;;;14.06;58.78;102535.69;5031452;28;20028;-77
2022/04/15 09:40:15;;;;;;;6.75;3.63;;;;;;;13.89;57.92;102542.38;5042176;28;20033;-76
2022/04/15 09:42:50;;;;;;;8.75;4.55;;;;;;;13.67;58.29;102543.44;5041888;28;20108;-77
2022/04/15 09:45:26;;;;;;;5.78;4.40;;;;;;;13.82;57.89;102539.53;5041705;28;20025;-77
2022/04/15 09:47:52;;;;;;;8.43;4.82;;;;;;;13.96;58.14;102534.88;5041618;28;20099;-77
2022/04/15 09:50:31;;;;;;;7.40;4.82;;;;;;;14.06;58.03;102537.47;5044701;28;20025;-77
2022/04/15 09:53:12;;;;;;;9.88;5.65;;;;;;;13.70;58.41;102545.78;5035078;28;20046;-77
2022/04/15 09:55:43;;;;;;;9.20;5.47;;;;;;;13.27;59.23;102551.25;5046951;28;20036;-77
2022/04/15 09:58:17;;;;;;;10.20;6.22;;;;;;;13.66;59.15;102541.81;5027204;28;20036;-77
2022/04/15 10:00:51;;;;;;;10.35;5.60;;;;;;;13.94;58.23;102549.81;5044307;28;20025;-77
2022/04/15 10:03:27;;;;;;;8.75;5.03;;;;;;;13.85;57.75;102546.22;5046041;28;20033;-77
2022/04/15 10:05:55;;;;;;;6.55;4.75;;;;;;;14.18;56.85;102550.25;5059232;28;20029;-77
2022/04/15 10:08:21;;;;;;;11.93;5.43;;;;;;;14.05;56.00;102533.19;5041264;28;20105;-77
2022/04/15 10:10:47;;;;;;;6.80;5.03;;;;;;;14.23;57.13;102544.59;5025097;28;20030;-77
2022/04/15 10:13:14;;;;;;;8.30;4.75;;;;;;;14.11;57.32;102549.16;5044199;28;20027;-77
2022/04/15 10:15:40;;;;;;;8.18;4.57;;;;;;;13.58;58.43;102539.88;5044578;28;20115;-77
2022/04/15 10:18:06;;;;;;;12.30;6.50;;;;;;;13.32;59.69;102538.69;5055334;28;20048;-77
2022/04/15 10:20:32;;;;;;;7.45;4.40;;;;;;;13.79;59.80;102544.19;5045254;28;20586;-77
2022/04/15 10:23:04;;;;;;;4.95;4.30;;;;;;;13.57;58.96;102542.59;5041981;28;20046;-77
2022/04/15 10:25:30;;;;;;;9.52;5.38;;;;;;;13.34;59.70;102555.84;5026977;28;20040;-78
2022/04/15 10:28:16;;;;;;;12.27;10.63;;;;;;;13.28;61.33;102545.91;5045655;28;20047;-79
2022/04/15 10:31:07;;;;;;;11.05;6.60;;;;;;;13.22;60.35;102541.22;5026761;28;20112;-77
2022/04/15 10:33:33;;;;;;;8.35;4.72;;;;;;;13.25;60.47;102540.97;5032596;28;20071;-78
2022/04/15 10:36:22;;;;;;;9.20;5.05;;;;;;;13.30;59.24;102548.38;5027385;28;20520;-76
2022/04/15 10:39:03;;;;;;;9.23;4.55;;;;;;;13.22;59.53;102543.81;5027904;28;20032;-76
2022/04/15 10:41:50;;;;;;;9.35;4.97;;;;;;;13.02;60.45;102553.34;5026119;28;20274;-76
2022/04/15 10:44:35;;;;;;;13.63;6.72;;;;;;;12.82;62.19;102555.00;5025439;28;20032;-76
2022/04/15 10:47:28;;;;;;;7.25;4.57;;;;;;;12.96;61.08;102557.28;5041212;28;20036;-76
2022/04/15 10:50:03;;;;;;;9.57;6.60;;;;;;;12.88;61.26;102545.84;5037354;28;20060;-77
2022/04/15 10:52:34;;;;;;;14.45;6.50;;;;;;;13.17;60.94;102546.00;5058675;28;20521;-76
2022/04/15 10:55:08;;;;;;;7.93;5.57;;;;;;;13.44;59.89;102546.25;5054465;28;20060;-76
2022/04/15 10:57:41;;;;;;;7.35;5.05;;;;;;;13.53;59.96;102552.47;5041485;28;20656;-77
2022/04/15 11:03:19;;;;;;;8.52;6.40;;;;;;;13.13;61.79;102547.19;5040155;28;20063;-77
2022/04/15 11:05:45;;;;;;;11.82;7.20;;;;;;;13.04;62.39;102549.66;5053819;28;20040;-76
2022/04/15 11:08:13;;;;;;;13.80;6.07;;;;;;;13.11;62.70;102546.50;5056849;28;20089;-76
2022/04/15 11:11:02;;;;;;;8.50;7.28;;;;;;;13.12;62.70;102549.00;5057600;28;20115;-76
2022/04/15 11:13:33;;;;;;;10.88;6.82;;;;;;;12.99;61.29;102546.59;5039434;28;20044;-75
2022/04/15 11:16:15;;;;;;;11.48;6.70;;;;;;;13.03;63.18;102549.75;5041534;28;20080;-76
2022/04/15 11:18:51;;;;;;;9.90;6.10;;;;;;;12.90;62.78;102544.75;5055183;28;20040;-76
2022/04/15 11:21:19;;;;;;;10.13;7.22;;;;;;;12.74;62.52;102553.03;5059373;28;20438;-76